Time;durP1;ratioP1;P1;durP2;ratioP2;P2;SDS_P1;SDS_P2;PMS_P1;PMS_P2;Temp;Humidity;BMP_temperature;BMP_pressure;BME280_temperature;BME280_humidity;BME280_pressure;Samples;Min_cycle;Max_cycle;Signal;HPM_P1;HPM_P2
2022/03/07 00:00:15;;;;;;;4.10;3.20;;;15.90;82.60;;;;;;2020706;28;20187;-73
2022/03/07 00:01:14;;;;;;;5.18;3.03;;;15.90;83.10;;;;;;2020677;28;20175;-73
2022/03/07 00:02:13;;;;;;;4.57;2.70;;;15.90;83.40;;;;;;2020156;28;20721;-73
2022/03/07 00:03:12;;;;;;;3.90;2.80;;;15.90;83.80;;;;;;2012331;28;20615;-73
2022/03/07 00:04:14;;;;;;;4.83;2.40;;;15.90;84.50;;;;;;2020074;28;20175;-73
2022/03/07 00:05:15;;;;;;;4.88;2.80;;;15.90;84.50;;;;;;2021109;28;20179;-73
2022/03/07 00:06:14;;;;;;;3.50;2.55;;;15.90;84.30;;;;;;2020897;28;20215;-74
2022/03/07 00:07:13;;;;;;;2.77;2.10;;;15.90;84.80;;;;;;2021228;28;20282;-73
2022/03/07 00:08:11;;;;;;;4.93;2.97;;;15.90;84.90;;;;;;2020256;28;20410;-73
2022/03/07 00:09:10;;;;;;;6.30;3.47;;;15.90;85.20;;;;;;2021008;28;20222;-74
2022/03/07 00:10:08;;;;;;;4.17;2.70;;;15.90;85.60;;;;;;2025439;28;20270;-72
2022/03/07 00:11:07;;;;;;;4.37;2.97;;;15.90;85.90;;;;;;2026195;28;20583;-73
2022/03/07 00:12:06;;;;;;;4.20;3.10;;;15.90;86.10;;;;;;2023560;28;20176;-73
2022/03/07 00:13:05;;;;;;;4.93;2.65;;;15.90;86.00;;;;;;2025001;28;20313;-73
2022/03/07 00:14:04;;;;;;;3.83;2.30;;;15.90;86.70;;;;;;2024812;28;20218;-74
2022/03/07 00:15:04;;;;;;;5.37;4.40;;;15.90;87.60;;;;;;2020789;28;20171;-74
2022/03/07 00:16:03;;;;;;;3.90;2.58;;;15.90;83.70;;;;;;2021153;28;20959;-73
2022/03/07 00:17:02;;;;;;;5.22;2.55;;;15.90;83.50;;;;;;2020757;28;20176;-73
2022/03/07 00:18:00;;;;;;;4.37;2.90;;;15.90;83.20;;;;;;2020689;28;20274;-73
2022/03/07 00:18:59;;;;;;;3.77;3.00;;;15.90;83.10;;;;;;2020028;28;20175;-73
2022/03/07 00:19:57;;;;;;;3.50;2.50;;;15.90;83.40;;;;;;2020240;28;20245;-73
2022/03/07 00:20:56;;;;;;;4.13;2.53;;;15.90;83.40;;;;;;2020682;28;20189;-73
2022/03/07 00:21:55;;;;;;;3.30;2.23;;;15.90;83.70;;;;;;2020624;28;20512;-73
2022/03/07 00:22:53;;;;;;;4.60;2.67;;;15.90;83.90;;;;;;2020777;28;20205;-73
2022/03/07 00:23:52;;;;;;;3.60;2.33;;;15.80;83.90;;;;;;2020820;28;20317;-73
2022/03/07 00:24:51;;;;;;;3.87;2.77;;;15.80;83.90;;;;;;2020369;28;20171;-73
2022/03/07 00:25:49;;;;;;;3.43;2.00;;;15.80;84.70;;;;;;2020859;28;20194;-73
2022/03/07 00:26:48;;;;;;;4.37;2.33;;;15.90;84.90;;;;;;2020413;28;20193;-73
2022/03/07 00:27:47;;;;;;;4.23;2.80;;;15.80;84.50;;;;;;2020296;28;20230;-73
2022/03/07 00:28:48;;;;;;;4.13;2.80;;;15.80;84.90;;;;;;2020895;28;20168;-73
2022/03/07 00:29:46;;;;;;;2.80;1.90;;;15.80;84.50;;;;;;2020997;28;20647;-73
2022/03/07 00:30:45;;;;;;;3.90;2.80;;;15.80;84.20;;;;;;2021095;28;20199;-73
2022/03/07 00:31:45;;;;;;;3.23;2.63;;;15.80;84.20;;;;;;2021036;28;20175;-73
2022/03/07 00:32:43;;;;;;;2.78;2.20;;;15.80;84.10;;;;;;2020158;28;20250;-73
2022/03/07 00:33:42;;;;;;;3.87;2.90;;;15.90;83.90;;;;;;2020402;28;20210;-73
2022/03/07 00:34:41;;;;;;;2.70;2.20;;;15.90;84.00;;;;;;2020016;28;20187;-73
2022/03/07 00:35:39;;;;;;;5.23;2.77;;;15.80;83.70;;;;;;2020270;28;20709;-73
2022/03/07 00:36:38;;;;;;;9.50;2.77;;;15.80;83.80;;;;;;2020903;28;20175;-73
2022/03/07 00:37:38;;;;;;;4.97;2.83;;;15.80;83.80;;;;;;2020973;28;20180;-73
2022/03/07 00:38:36;;;;;;;4.70;2.40;;;15.80;83.70;;;;;;2021076;28;20263;-73
2022/03/07 00:39:35;;;;;;;5.00;3.27;;;15.80;84.10;;;;;;2019775;28;20677;-73
2022/03/07 00:40:33;;;;;;;3.90;2.57;;;15.80;83.80;;;;;;2020048;28;20729;-73
2022/03/07 00:41:32;;;;;;;2.90;2.50;;;15.80;83.90;;;;;;2020748;28;20241;-73
2022/03/07 00:42:31;;;;;;;6.20;2.50;;;15.80;84.10;;;;;;2020633;28;20312;-73
2022/03/07 00:43:29;;;;;;;7.03;2.67;;;15.80;84.20;;;;;;2020976;28;20655;-73
2022/03/07 00:44:28;;;;;;;5.77;2.70;;;15.80;84.50;;;;;;2022917;28;20532;-73
2022/03/07 00:45:27;;;;;;;4.70;2.73;;;15.80;84.60;;;;;;2023287;28;20176;-74
2022/03/07 00:46:26;;;;;;;3.63;2.33;;;15.80;84.60;;;;;;2023608;28;20643;-73
2022/03/07 00:47:25;;;;;;;4.03;3.03;;;15.80;85.30;;;;;;2028233;28;20199;-72
2022/03/07 00:48:23;;;;;;;3.63;2.70;;;15.80;87.10;;;;;;2030224;28;20188;-72
2022/03/07 00:49:23;;;;;;;4.07;2.53;;;15.70;87.20;;;;;;2030073;28;20160;-72
2022/03/07 00:50:22;;;;;;;5.28;3.33;;;15.70;87.80;;;;;;2030204;28;20153;-72
2022/03/07 00:51:23;;;;;;;4.30;2.60;;;15.80;88.50;;;;;;2029759;28;20148;-72
2022/03/07 00:52:22;;;;;;;3.70;2.30;;;15.70;88.30;;;;;;2029870;28;20188;-72
2022/03/07 00:53:23;;;;;;;2.70;2.37;;;15.80;89.80;;;;;;2029586;28;20184;-72
2022/03/07 00:54:22;;;;;;;3.72;2.65;;;15.80;88.50;;;;;;2030186;28;20215;-72
2022/03/07 00:55:20;;;;;;;3.70;2.60;;;15.80;88.90;;;;;;2030296;28;20187;-72
2022/03/07 00:56:18;;;;;;;3.43;2.63;;;15.80;88.80;;;;;;2029511;28;20231;-72
2022/03/07 00:57:17;;;;;;;3.13;2.60;;;15.80;88.80;;;;;;2028630;28;20171;-72
2022/03/07 00:58:16;;;;;;;4.30;2.40;;;15.80;88.80;;;;;;2029100;28;20172;-72
2022/03/07 00:59:15;;;;;;;4.40;2.83;;;15.80;89.40;;;;;;2029006;28;20171;-74
2022/03/07 01:00:13;;;;;;;2.70;2.17;;;15.80;89.00;;;;;;2028128;28;20226;-73
2022/03/07 01:01:12;;;;;;;4.10;2.60;;;15.70;88.30;;;;;;2024758;28;20176;-73
2022/03/07 01:02:11;;;;;;;6.90;3.27;;;15.80;87.90;;;;;;2023264;28;20199;-73
2022/03/07 01:03:11;;;;;;;3.10;2.58;;;15.80;88.10;;;;;;2023290;28;20704;-73
2022/03/07 01:04:09;;;;;;;6.38;2.95;;;15.70;88.00;;;;;;2023035;28;20639;-73
2022/03/07 01:05:08;;;;;;;5.10;3.00;;;15.70;88.80;;;;;;2023252;28;20592;-73
2022/03/07 01:06:07;;;;;;;3.27;2.60;;;15.70;89.40;;;;;;2023257;28;20179;-72
2022/03/07 01:07:08;;;;;;;3.10;2.30;;;15.80;90.80;;;;;;2022622;28;20441;-74
2022/03/07 01:08:07;;;;;;;5.40;2.42;;;;;;;;;;2022871;28;20164;-73
2022/03/07 01:09:06;;;;;;;3.67;2.10;;;;;;;;;;2023236;28;20235;-72
2022/03/07 01:10:06;;;;;;;4.00;2.37;;;;;;;;;;2022202;28;20175;-72
2022/03/07 01:11:05;;;;;;;3.38;2.42;;;15.60;90.70;;;;;;2021973;28;20421;-73
2022/03/07 01:12:04;;;;;;;5.63;2.55;;;15.70;90.20;;;;;;2022742;28;20172;-71
2022/03/07 01:13:04;;;;;;;3.23;2.73;;;15.30;91.20;;;;;;2023091;28;20283;-73
2022/03/07 01:14:03;;;;;;;4.22;2.72;;;;;;;;;;2023163;28;20498;-71
2022/03/07 01:15:03;;;;;;;5.90;2.95;;;15.50;97.10;;;;;;2022512;28;20211;-73
2022/03/07 01:16:02;;;;;;;4.40;2.70;;;15.70;92.60;;;;;;2022908;28;20210;-73
2022/03/07 01:17:01;;;;;;;4.87;2.77;;;15.70;92.40;;;;;;2022806;28;20615;-73
2022/03/07 01:17:59;;;;;;;6.50;2.57;;;15.70;92.20;;;;;;2023383;28;20160;-73
2022/03/07 01:18:58;;;;;;;5.70;2.70;;;15.70;92.40;;;;;;2023033;28;20661;-73
2022/03/07 01:19:56;;;;;;;4.63;3.20;;;15.60;92.00;;;;;;2022860;28;20168;-72
2022/03/07 01:20:55;;;;;;;3.33;2.63;;;15.60;92.00;;;;;;2022201;28;20168;-74
2022/03/07 01:21:53;;;;;;;2.50;2.23;;;15.70;92.00;;;;;;2022641;28;20218;-73
2022/03/07 01:22:52;;;;;;;4.07;2.70;;;15.70;92.00;;;;;;2027130;28;20239;-72
2022/03/07 01:23:51;;;;;;;5.20;3.27;;;15.60;92.30;;;;;;2029138;28;20155;-72
2022/03/07 01:24:49;;;;;;;4.47;2.83;;;15.60;92.50;;;;;;2022859;28;20811;-72
2022/03/07 01:25:48;;;;;;;5.20;3.13;;;15.60;92.30;;;;;;2030322;28;20171;-73
2022/03/07 01:26:47;;;;;;;3.07;2.23;;;15.60;92.40;;;;;;2024938;28;20201;-71
2022/03/07 01:27:45;;;;;;;4.03;2.60;;;15.60;92.70;;;;;;2026911;28;20195;-72
2022/03/07 01:28:44;;;;;;;3.77;2.43;;;15.60;93.40;;;;;;2030593;28;20176;-71
2022/03/07 01:29:42;;;;;;;3.73;2.70;;;15.60;93.90;;;;;;2030992;28;20167;-73
2022/03/07 01:30:41;;;;;;;7.03;3.03;;;15.70;96.10;;;;;;2030402;28;20176;-71
2022/03/07 01:31:40;;;;;;;3.40;2.57;;;15.70;93.20;;;;;;2030273;28;20496;-72
2022/03/07 01:32:38;;;;;;;4.70;2.43;;;15.70;95.80;;;;;;2030426;28;20168;-72
2022/03/07 01:33:39;;;;;;;2.73;2.27;;;15.60;96.10;;;;;;2025102;28;20207;-73
2022/03/07 01:34:37;;;;;;;3.30;2.58;;;15.70;92.40;;;;;;2024229;28;20183;-72
2022/03/07 01:35:36;;;;;;;5.17;2.83;;;15.60;92.30;;;;;;2031441;28;20195;-72
2022/03/07 01:36:35;;;;;;;4.47;3.00;;;15.60;92.40;;;;;;2031088;28;20164;-72
2022/03/07 01:37:34;;;;;;;3.00;2.40;;;15.60;92.50;;;;;;2031364;28;20182;-71
2022/03/07 01:38:32;;;;;;;4.53;2.53;;;15.60;92.00;;;;;;2031507;28;20390;-71
2022/03/07 01:39:31;;;;;;;3.03;2.50;;;15.60;91.80;;;;;;2031023;28;20176;-71
2022/03/07 01:40:30;;;;;;;2.87;2.57;;;15.70;92.70;;;;;;2031122;28;20171;-71
2022/03/07 01:41:28;;;;;;;2.70;2.40;;;15.60;92.60;;;;;;2031573;28;20223;-71
2022/03/07 01:42:27;;;;;;;3.53;2.70;;;15.60;94.00;;;;;;2031481;28;20178;-71
2022/03/07 01:43:26;;;;;;;3.73;2.50;;;15.60;94.60;;;;;;2030682;28;20207;-72
2022/03/07 01:44:29;;;;;;;3.40;2.60;;;;;;;;;;2030279;28;20175;-71
2022/03/07 01:45:31;;;;;;;4.15;2.63;;;;;;;;;;2031053;28;20195;-72
2022/03/07 01:46:32;;;;;;;4.45;2.95;;;;;;;;;;2031371;28;20227;-71
2022/03/07 01:47:35;;;;;;;3.63;2.50;;;15.60;96.60;;;;;;2031147;28;20295;-71
2022/03/07 01:48:33;;;;;;;4.35;2.97;;;15.60;94.40;;;;;;2031113;28;20160;-71
2022/03/07 01:49:32;;;;;;;3.13;2.63;;;;;;;;;;2031279;28;20191;-72
2022/03/07 01:50:33;;;;;;;3.85;2.30;;;;;;;;;;2031279;28;20170;-71
2022/03/07 01:51:32;;;;;;;5.25;2.85;;;;;;;;;;2031338;28;20163;-71
2022/03/07 01:52:33;;;;;;;3.85;2.20;;;;;;;;;;2031241;28;20163;-71
2022/03/07 01:53:32;;;;;;;3.90;2.67;;;15.60;91.10;;;;;;2030817;28;20223;-71
2022/03/07 01:54:31;;;;;;;4.90;3.20;;;;;;;;;;2030762;28;20167;-72
2022/03/07 01:55:31;;;;;;;5.60;2.80;;;;;;;;;;2030588;28;20171;-71
2022/03/07 01:56:30;;;;;;;2.70;2.15;;;;;;;;;;2030891;28;20395;-72
2022/03/07 01:57:30;;;;;;;3.73;2.47;;;15.50;97.80;;;;;;2031095;28;20194;-72
2022/03/07 01:58:28;;;;;;;4.53;3.10;;;15.70;93.40;;;;;;2030223;28;20401;-71
2022/03/07 01:59:28;;;;;;;4.47;2.30;;;15.60;93.90;;;;;;2030402;28;20199;-72
2022/03/07 02:00:28;;;;;;;3.40;2.00;;;15.60;92.60;;;;;;2037713;28;20209;-72
2022/03/07 02:01:26;;;;;;;2.90;2.60;;;15.60;93.70;;;;;;2029400;28;20313;-72
2022/03/07 02:02:25;;;;;;;5.13;2.87;;;15.60;94.60;;;;;;2029206;28;20194;-71
2022/03/07 02:03:25;;;;;;;5.10;2.93;;;;;;;;;;2028481;28;20183;-72
2022/03/07 02:04:23;;;;;;;2.90;2.40;;;15.60;95.90;;;;;;2021399;28;20172;-73
2022/03/07 02:05:22;;;;;;;5.30;2.60;;;15.60;94.70;;;;;;2021385;28;20255;-73
2022/03/07 02:06:21;;;;;;;4.67;3.20;;;15.70;95.50;;;;;;2021284;28;20172;-73
2022/03/07 02:07:23;;;;;;;5.63;2.30;;;15.60;94.40;;;;;;2021059;28;20708;-73
2022/03/07 02:08:21;;;;;;;4.00;2.60;;;15.60;93.90;;;;;;2020521;28;20196;-73
2022/03/07 02:09:20;;;;;;;3.77;2.30;;;15.70;93.90;;;;;;2012960;28;20552;-72
2022/03/07 02:10:18;;;;;;;3.97;2.70;;;15.60;93.50;;;;;;2020211;28;20266;-72
2022/03/07 02:11:17;;;;;;;4.33;2.83;;;15.60;93.60;;;;;;2021434;28;20308;-73
2022/03/07 02:12:16;;;;;;;2.55;2.35;;;15.60;93.60;;;;;;2021394;28;20176;-73
2022/03/07 02:13:17;;;;;;;4.20;2.47;;;15.60;93.40;;;;;;2020217;28;20305;-73
2022/03/07 02:14:22;;;;;;;3.42;2.67;;;15.60;93.50;;;;;;2021243;28;20545;-73
2022/03/07 02:15:20;;;;;;;3.80;2.67;;;15.60;92.90;;;;;;2021336;28;20170;-73
2022/03/07 02:16:20;;;;;;;3.57;2.73;;;15.60;92.50;;;;;;2021373;28;20666;-73
2022/03/07 02:17:18;;;;;;;7.55;2.75;;;15.60;92.20;;;;;;2020534;28;20407;-73
2022/03/07 02:18:17;;;;;;;3.10;2.37;;;15.60;92.00;;;;;;2012512;28;20176;-73
2022/03/07 02:19:16;;;;;;;3.70;2.63;;;15.60;91.80;;;;;;2019901;28;20164;-73
2022/03/07 02:20:15;;;;;;;5.47;3.42;;;15.60;91.50;;;;;;2021005;28;20164;-73
2022/03/07 02:21:16;;;;;;;3.70;2.70;;;15.40;91.20;;;;;;2021119;28;20168;-74
2022/03/07 02:22:16;;;;;;;4.90;2.50;;;15.60;91.30;;;;;;2021136;28;20164;-74
2022/03/07 02:23:15;;;;;;;4.60;3.10;;;15.50;91.00;;;;;;2021143;28;20758;-73
2022/03/07 02:24:16;;;;;;;5.70;2.55;;;15.60;91.00;;;;;;2021232;28;20187;-73
2022/03/07 02:25:14;;;;;;;4.38;2.80;;;15.60;90.80;;;;;;2021320;28;20172;-73
2022/03/07 02:26:18;;;;;;;2.90;2.30;;;15.50;90.50;;;;;;2021191;28;20517;-74
2022/03/07 02:27:18;;;;;;;4.00;2.10;;;15.60;90.50;;;;;;2020465;28;20179;-74
2022/03/07 02:28:17;;;;;;;3.60;2.72;;;15.50;90.20;;;;;;2020624;28;20318;-73
2022/03/07 02:29:15;;;;;;;5.47;3.63;;;15.60;90.40;;;;;;2021182;28;20175;-73
2022/03/07 02:30:14;;;;;;;3.00;2.47;;;15.60;90.20;;;;;;2021209;28;20163;-73
2022/03/07 02:31:17;;;;;;;2.47;2.20;;;15.60;90.30;;;;;;2021019;28;20174;-74
2022/03/07 02:32:16;;;;;;;4.25;3.00;;;15.60;90.10;;;;;;2021147;28;20623;-73
2022/03/07 02:33:14;;;;;;;5.43;3.80;;;15.60;90.20;;;;;;2021011;28;20215;-73
2022/03/07 02:34:13;;;;;;;2.73;2.33;;;15.50;90.10;;;;;;2021218;28;20567;-73
2022/03/07 02:35:13;;;;;;;3.93;2.60;;;15.50;90.20;;;;;;2021166;28;20650;-74
2022/03/07 02:36:12;;;;;;;3.58;2.40;;;15.50;90.00;;;;;;2021257;28;20485;-74
2022/03/07 02:37:10;;;;;;;3.70;2.83;;;15.50;90.00;;;;;;2012574;28;20191;-73
2022/03/07 02:38:14;;;;;;;3.50;2.73;;;15.50;90.10;;;;;;2012723;28;20690;-73
2022/03/07 02:39:13;;;;;;;5.10;2.65;;;15.50;90.20;;;;;;2021266;28;20203;-73
2022/03/07 02:40:13;;;;;;;4.03;2.65;;;15.50;90.20;;;;;;2021266;28;20191;-73
2022/03/07 02:41:11;;;;;;;5.03;3.03;;;15.50;89.80;;;;;;2021206;28;20198;-73
2022/03/07 02:42:12;;;;;;;6.30;2.57;;;15.50;90.00;;;;;;2021146;28;20172;-74
2022/03/07 02:43:15;;;;;;;3.30;2.30;;;15.50;90.00;;;;;;2020812;28;20224;-73
2022/03/07 02:44:14;;;;;;;3.72;2.70;;;15.50;90.00;;;;;;2021164;28;20168;-74
2022/03/07 02:45:13;;;;;;;4.78;2.70;;;15.50;89.80;;;;;;2020441;28;20183;-73
2022/03/07 02:46:12;;;;;;;3.07;2.63;;;15.50;89.30;;;;;;2020519;28;20207;-73
2022/03/07 02:47:14;;;;;;;4.17;3.20;;;15.50;89.10;;;;;;2021066;28;20203;-73
2022/03/07 02:48:13;;;;;;;4.03;2.60;;;15.50;89.50;;;;;;2021106;28;20229;-72
2022/03/07 02:49:11;;;;;;;2.90;2.17;;;15.40;88.90;;;;;;2021083;28;20229;-73
2022/03/07 02:50:10;;;;;;;3.83;2.37;;;15.50;89.00;;;;;;2021212;28;20394;-73
2022/03/07 02:51:08;;;;;;;4.93;2.90;;;15.50;89.20;;;;;;2021102;28;20631;-73
2022/03/07 02:52:08;;;;;;;3.87;3.07;;;15.50;88.70;;;;;;2021038;28;20172;-73
2022/03/07 02:53:08;;;;;;;3.22;2.33;;;15.50;88.90;;;;;;2020340;28;20247;-73
2022/03/07 02:54:08;;;;;;;3.45;2.80;;;15.50;88.20;;;;;;2012568;28;20183;-73
2022/03/07 02:55:07;;;;;;;4.18;2.90;;;15.50;88.80;;;;;;2020191;28;20168;-73
2022/03/07 02:56:07;;;;;;;3.70;2.53;;;15.50;88.60;;;;;;2020922;28;20193;-74
2022/03/07 02:57:07;;;;;;;3.92;2.50;;;15.50;88.70;;;;;;2020994;28;20681;-73
2022/03/07 02:58:05;;;;;;;3.70;2.70;;;15.50;88.30;;;;;;2021135;28;20282;-74
2022/03/07 02:59:04;;;;;;;3.93;3.00;;;15.40;88.10;;;;;;2021020;28;20176;-73
2022/03/07 03:00:03;;;;;;;2.87;2.30;;;15.40;88.00;;;;;;2020445;28;20206;-74
2022/03/07 03:01:03;;;;;;;4.55;2.90;;;15.40;88.50;;;;;;2020637;28;20179;-73
2022/03/07 03:02:02;;;;;;;4.18;2.30;;;15.40;88.40;;;;;;2021032;28;20185;-73
2022/03/07 03:03:01;;;;;;;3.10;2.30;;;15.40;88.50;;;;;;2020905;28;20283;-73
2022/03/07 03:03:59;;;;;;;4.75;2.58;;;15.40;88.10;;;;;;2020757;28;20203;-73
2022/03/07 03:04:58;;;;;;;4.30;2.70;;;15.40;88.80;;;;;;2020882;28;20214;-73
2022/03/07 03:05:58;;;;;;;6.00;2.80;;;15.40;88.60;;;;;;2020619;28;20689;-72
2022/03/07 03:06:56;;;;;;;4.72;2.47;;;15.40;88.60;;;;;;2020392;28;20263;-72
2022/03/07 03:07:58;;;;;;;4.60;2.70;;;15.40;88.60;;;;;;2020467;28;20231;-73
2022/03/07 03:08:57;;;;;;;4.38;2.90;;;15.40;88.50;;;;;;2020341;28;20172;-73
2022/03/07 03:09:57;;;;;;;4.00;2.67;;;15.40;88.80;;;;;;2028372;28;20186;-73
2022/03/07 03:10:59;;;;;;;3.58;2.50;;;15.50;89.30;;;;;;2028252;28;20191;-73
2022/03/07 03:11:57;;;;;;;4.05;2.60;;;15.50;88.70;;;;;;2020910;28;20164;-73
2022/03/07 03:12:56;;;;;;;4.57;2.70;;;15.40;88.70;;;;;;2020767;28;20195;-73
2022/03/07 03:13:55;;;;;;;5.20;2.97;;;15.50;88.70;;;;;;2020932;28;20384;-73
2022/03/07 03:14:53;;;;;;;3.53;2.73;;;15.40;88.60;;;;;;2020191;28;20172;-73
2022/03/07 03:15:54;;;;;;;5.27;2.70;;;15.40;88.90;;;;;;2020054;28;20182;-74
2022/03/07 03:16:52;;;;;;;2.92;2.03;;;15.40;89.40;;;;;;2020662;28;20167;-74
2022/03/07 03:17:51;;;;;;;4.37;2.23;;;15.40;88.90;;;;;;2020804;28;20350;-74
2022/03/07 03:18:49;;;;;;;2.97;2.40;;;15.40;88.60;;;;;;2020864;28;20226;-73
2022/03/07 03:19:48;;;;;;;4.10;2.50;;;15.40;88.50;;;;;;2020790;28;20254;-74
2022/03/07 03:20:49;;;;;;;3.47;2.33;;;15.40;88.70;;;;;;2020904;28;20225;-73
2022/03/07 03:21:47;;;;;;;3.30;2.47;;;15.40;88.80;;;;;;2020612;28;20184;-73
2022/03/07 03:22:46;;;;;;;3.07;2.40;;;15.40;89.10;;;;;;2020790;28;20673;-74
2022/03/07 03:23:46;;;;;;;3.80;2.57;;;15.40;88.80;;;;;;2020759;28;20247;-74
2022/03/07 03:24:44;;;;;;;4.65;2.58;;;15.40;88.80;;;;;;2020420;28;20406;-73
2022/03/07 03:25:43;;;;;;;3.07;2.50;;;15.40;88.60;;;;;;2020902;28;20183;-73
2022/03/07 03:26:41;;;;;;;4.30;2.87;;;15.40;88.90;;;;;;2020860;28;20285;-73
2022/03/07 03:27:40;;;;;;;2.80;2.43;;;15.40;88.30;;;;;;2020614;28;20214;-73
2022/03/07 03:28:39;;;;;;;2.90;2.37;;;15.40;88.80;;;;;;2020555;28;20178;-74
2022/03/07 03:29:37;;;;;;;2.40;2.17;;;15.30;88.10;;;;;;2020624;28;20965;-74
2022/03/07 03:30:36;;;;;;;3.43;2.70;;;15.40;88.10;;;;;;2020041;28;20191;-73
2022/03/07 03:31:34;;;;;;;4.70;2.73;;;15.40;88.40;;;;;;2020165;28;20663;-73
2022/03/07 03:32:33;;;;;;;5.10;3.10;;;15.40;88.10;;;;;;2020630;28;20167;-73
2022/03/07 03:33:31;;;;;;;3.83;2.50;;;15.30;87.80;;;;;;2020733;28;20647;-73
2022/03/07 03:34:30;;;;;;;6.30;2.70;;;15.30;87.80;;;;;;2020788;28;20172;-73
2022/03/07 03:35:29;;;;;;;3.90;2.50;;;15.30;87.70;;;;;;2020848;28;20665;-73
2022/03/07 03:36:28;;;;;;;2.67;2.15;;;15.40;87.80;;;;;;2020165;28;20187;-74
2022/03/07 03:37:27;;;;;;;3.90;2.83;;;15.40;87.30;;;;;;2020390;28;20168;-73
2022/03/07 03:38:25;;;;;;;4.53;2.90;;;15.30;87.40;;;;;;2020769;28;20172;-73
2022/03/07 03:39:24;;;;;;;4.47;2.90;;;15.30;87.30;;;;;;2020705;28;20215;-73
2022/03/07 03:40:22;;;;;;;2.90;2.40;;;15.30;87.00;;;;;;2019779;28;20168;-72
2022/03/07 03:41:21;;;;;;;2.80;2.20;;;15.30;86.80;;;;;;2012061;28;20175;-72
2022/03/07 03:42:21;;;;;;;3.90;2.90;;;15.30;86.70;;;;;;2019491;28;20172;-73
2022/03/07 03:43:21;;;;;;;4.63;2.30;;;15.30;87.00;;;;;;2020546;28;20633;-73
2022/03/07 03:44:21;;;;;;;4.40;2.58;;;15.30;86.80;;;;;;2020069;28;20226;-72
2022/03/07 03:45:20;;;;;;;3.70;2.80;;;15.30;86.90;;;;;;2012000;28;20499;-72
2022/03/07 03:46:18;;;;;;;2.80;2.40;;;15.30;87.30;;;;;;2019718;28;20266;-72
2022/03/07 03:47:17;;;;;;;4.03;2.47;;;15.30;86.80;;;;;;2020584;28;20183;-72
2022/03/07 03:48:15;;;;;;;4.40;3.00;;;15.30;86.80;;;;;;2020607;28;20182;-73
2022/03/07 03:49:15;;;;;;;2.83;2.40;;;15.30;86.90;;;;;;2020692;28;20182;-73
2022/03/07 03:50:14;;;;;;;3.33;2.35;;;15.30;87.00;;;;;;2020653;28;20654;-73
2022/03/07 03:51:13;;;;;;;3.03;2.27;;;15.30;87.00;;;;;;2020671;28;20529;-73
2022/03/07 03:52:11;;;;;;;3.77;2.90;;;15.30;86.80;;;;;;2019757;28;20406;-73
2022/03/07 03:53:10;;;;;;;3.47;2.63;;;15.30;86.80;;;;;;2019899;28;20192;-74
2022/03/07 03:54:08;;;;;;;2.40;2.10;;;15.30;87.10;;;;;;2020456;28;20623;-74
2022/03/07 03:55:09;;;;;;;5.93;2.47;;;15.30;87.20;;;;;;2020624;28;20175;-74
2022/03/07 03:56:08;;;;;;;3.67;2.88;;;15.30;87.30;;;;;;2020608;28;20229;-73
2022/03/07 03:57:06;;;;;;;3.30;2.80;;;15.30;87.20;;;;;;2019888;28;20176;-73
2022/03/07 03:58:05;;;;;;;4.20;3.20;;;15.30;87.40;;;;;;2020110;28;20371;-74
2022/03/07 03:59:03;;;;;;;2.77;2.43;;;15.20;87.40;;;;;;2020519;28;20179;-74
2022/03/07 04:00:04;;;;;;;3.10;2.57;;;15.30;87.30;;;;;;2019892;28;20638;-74
2022/03/07 04:01:03;;;;;;;3.38;2.70;;;15.30;87.90;;;;;;2020064;28;20707;-74
2022/03/07 04:02:01;;;;;;;3.63;2.60;;;15.30;87.80;;;;;;2020449;28;20184;-74
2022/03/07 04:03:00;;;;;;;4.67;3.30;;;15.20;87.60;;;;;;2020291;28;20246;-74
2022/03/07 04:03:58;;;;;;;3.10;2.67;;;15.20;87.60;;;;;;2020433;28;20176;-73
2022/03/07 04:04:58;;;;;;;4.40;2.90;;;15.20;87.50;;;;;;2020507;28;20271;-74
2022/03/07 04:05:57;;;;;;;4.60;2.67;;;15.20;87.40;;;;;;2020501;28;20176;-73
2022/03/07 04:06:55;;;;;;;2.80;2.30;;;15.30;87.40;;;;;;2020560;28;20183;-73
2022/03/07 04:07:54;;;;;;;4.07;2.60;;;15.20;87.20;;;;;;2020623;28;20213;-74
2022/03/07 04:08:53;;;;;;;3.30;2.70;;;15.20;87.50;;;;;;2019804;28;20172;-74
2022/03/07 04:09:52;;;;;;;4.28;2.50;;;15.30;87.60;;;;;;2019816;28;20218;-74
2022/03/07 04:10:51;;;;;;;4.72;2.63;;;15.20;87.50;;;;;;2020336;28;20744;-73
2022/03/07 04:11:49;;;;;;;5.23;2.67;;;15.20;87.60;;;;;;2020637;28;20172;-73
2022/03/07 04:12:48;;;;;;;3.00;2.60;;;15.20;87.50;;;;;;2020388;28;20674;-73
2022/03/07 04:13:46;;;;;;;3.13;2.57;;;15.20;87.70;;;;;;2020461;28;20174;-73
2022/03/07 04:14:45;;;;;;;3.00;2.27;;;15.20;87.80;;;;;;2019715;28;20176;-74
2022/03/07 04:15:44;;;;;;;3.50;2.60;;;15.20;87.60;;;;;;2011859;28;20652;-73
2022/03/07 04:16:43;;;;;;;2.63;2.40;;;15.20;87.70;;;;;;2019323;28;20671;-73
2022/03/07 04:17:42;;;;;;;3.25;2.45;;;15.20;88.00;;;;;;2020321;28;20183;-73
2022/03/07 04:18:41;;;;;;;2.65;1.90;;;15.20;88.10;;;;;;2020393;28;20180;-73
2022/03/07 04:19:39;;;;;;;3.53;2.93;;;15.20;88.20;;;;;;2019722;28;20171;-73
2022/03/07 04:20:38;;;;;;;3.40;2.70;;;15.20;88.20;;;;;;2019669;28;20568;-73
2022/03/07 04:21:39;;;;;;;3.80;2.40;;;15.20;87.50;;;;;;2020599;28;20187;-73
2022/03/07 04:22:38;;;;;;;3.97;2.63;;;15.20;88.20;;;;;;2019670;28;20210;-73
2022/03/07 04:23:37;;;;;;;3.75;2.53;;;15.20;88.10;;;;;;2019748;28;20187;-73
2022/03/07 04:24:35;;;;;;;4.00;2.80;;;15.20;88.00;;;;;;2019181;28;20171;-73
2022/03/07 04:25:34;;;;;;;3.43;2.43;;;15.20;87.70;;;;;;2019727;28;20523;-73
2022/03/07 04:26:33;;;;;;;3.90;2.60;;;15.20;87.90;;;;;;2020408;28;20270;-72
2022/03/07 04:27:33;;;;;;;2.87;2.57;;;15.20;88.20;;;;;;2020234;28;20172;-73
2022/03/07 04:28:32;;;;;;;3.92;2.60;;;15.20;88.20;;;;;;2020300;28;20166;-72
2022/03/07 04:29:31;;;;;;;4.03;2.63;;;15.10;87.90;;;;;;2020305;28;20251;-73
2022/03/07 04:30:29;;;;;;;4.30;3.13;;;15.20;88.20;;;;;;2020360;28;20167;-73
2022/03/07 04:31:29;;;;;;;3.87;2.60;;;15.20;88.30;;;;;;2020316;28;20175;-73
2022/03/07 04:32:28;;;;;;;3.10;2.55;;;15.20;88.20;;;;;;2020309;28;20175;-73
2022/03/07 04:33:27;;;;;;;3.37;2.40;;;15.20;88.30;;;;;;2020346;28;20163;-72
2022/03/07 04:34:25;;;;;;;3.10;2.50;;;15.10;88.30;;;;;;2019797;28;20210;-73
2022/03/07 04:35:24;;;;;;;3.20;2.50;;;15.10;88.20;;;;;;2019949;28;20170;-73
2022/03/07 04:36:23;;;;;;;3.72;2.67;;;15.20;88.80;;;;;;2020704;28;20167;-73
2022/03/07 04:37:22;;;;;;;6.43;2.83;;;15.20;88.50;;;;;;2021932;28;20694;-73
2022/03/07 04:38:24;;;;;;;3.23;2.77;;;15.10;88.70;;;;;;2021380;28;20608;-73
2022/03/07 04:39:23;;;;;;;6.05;2.75;;;15.10;88.50;;;;;;2021641;28;20615;-73
2022/03/07 04:40:22;;;;;;;3.92;2.33;;;15.10;88.60;;;;;;2022191;28;20178;-73
2022/03/07 04:41:21;;;;;;;2.87;2.40;;;15.20;88.50;;;;;;2021985;28;20602;-73
2022/03/07 04:42:19;;;;;;;3.00;2.60;;;15.10;88.30;;;;;;2021423;28;20263;-73
2022/03/07 04:43:18;;;;;;;2.87;2.17;;;15.20;88.50;;;;;;2021212;28;20272;-72
2022/03/07 04:44:18;;;;;;;3.10;2.63;;;15.10;88.50;;;;;;2021934;28;20433;-72
2022/03/07 04:45:16;;;;;;;2.83;2.60;;;15.10;88.40;;;;;;2021988;28;20258;-72
2022/03/07 04:46:15;;;;;;;2.73;2.33;;;15.10;88.20;;;;;;2022188;28;20172;-73
2022/03/07 04:47:15;;;;;;;2.80;2.17;;;15.20;88.40;;;;;;2022000;28;20191;-72
2022/03/07 04:48:14;;;;;;;3.58;2.88;;;15.10;88.50;;;;;;2021851;28;20280;-73
2022/03/07 04:49:12;;;;;;;5.32;3.38;;;15.10;88.40;;;;;;2021742;28;20561;-73
2022/03/07 04:50:12;;;;;;;2.20;2.00;;;15.10;88.50;;;;;;2021987;28;20171;-72
2022/03/07 04:51:11;;;;;;;3.15;2.55;;;15.10;88.50;;;;;;2021383;28;20277;-72
2022/03/07 04:52:10;;;;;;;2.63;2.43;;;15.10;88.30;;;;;;2021325;28;20202;-72
2022/03/07 04:53:08;;;;;;;4.13;2.43;;;15.10;88.30;;;;;;2021737;28;20187;-72
2022/03/07 04:54:07;;;;;;;5.17;2.93;;;15.20;88.30;;;;;;2021278;28;20184;-73
2022/03/07 04:55:13;;;;;;;2.70;2.10;;;15.10;88.20;;;;;;2021391;28;20179;-73
2022/03/07 04:56:12;;;;;;;3.17;2.15;;;15.10;89.20;;;;;;2021290;28;20251;-72
2022/03/07 04:57:11;;;;;;;4.07;2.53;;;15.10;88.30;;;;;;2021271;28;20639;-73
2022/03/07 04:58:09;;;;;;;2.80;2.60;;;15.10;88.40;;;;;;2021857;28;20207;-73
2022/03/07 04:59:08;;;;;;;4.70;2.60;;;15.10;88.50;;;;;;2022061;28;20172;-74
2022/03/07 05:00:08;;;;;;;4.30;2.43;;;15.10;88.20;;;;;;2021906;28;20214;-73
2022/03/07 05:01:07;;;;;;;2.67;2.17;;;15.10;88.70;;;;;;2021172;28;20176;-73
2022/03/07 05:02:07;;;;;;;3.70;2.53;;;15.10;88.40;;;;;;2021334;28;20203;-73
2022/03/07 05:03:05;;;;;;;5.90;2.63;;;15.10;88.00;;;;;;2021801;28;20196;-73
2022/03/07 05:04:04;;;;;;;2.90;2.43;;;15.10;88.40;;;;;;2021872;28;20218;-73
2022/03/07 05:05:03;;;;;;;4.63;2.93;;;15.10;88.10;;;;;;2021118;28;20174;-73
2022/03/07 05:06:01;;;;;;;4.43;2.90;;;15.00;88.40;;;;;;2013183;28;20291;-74
2022/03/07 05:07:00;;;;;;;3.90;2.50;;;15.10;88.40;;;;;;2020746;28;20416;-73
2022/03/07 05:08:00;;;;;;;3.07;2.63;;;15.00;88.20;;;;;;2021744;28;20666;-73
2022/03/07 05:08:58;;;;;;;3.80;2.83;;;15.10;88.80;;;;;;2021725;28;20171;-73
2022/03/07 05:09:57;;;;;;;3.77;2.50;;;15.10;88.30;;;;;;2021242;28;20179;-74